Kuwait City, Kuwait
Current Conditions -  °F | °C
As of 12:00 PM on Friday 31 Oct 2014 (Local Time) from OKBK Reporting Station
Sand / Dust Storm Sand / Dust Storm  
Wind Chill: 99°   Ceiling: 8000
Heat Index: 99°   Visibility: 0.5mi
Dew Point: 41°   Wind: 24mph
Humidity: 14%   Direction: 230°SW
Pressure: 29.71"   Gusts: NA
Location:  29.22°N, 47.98°E
Report Text: OKBK 310900Z 23021KT 170V230 0800 R15R/1200N R15L/1100VP1500D-DS FEW040 BKN080 37/05 Q1006 NOSIG
Loading
Personal Weather Stations






























Interactive Weather Map New forecast layout! Learn more

10-Day Weather Forecast

Advertisements
Track Severe Weather on mobile